YIB weather

Atikokan Municipal Airport
Atikokan, Ontario, Canada

Public forecast

Using degrees Celsius for public forecast. Weather courtesy of forecast.io.

Closest aviation weather report (METAR) to Atikokan Municipal Airport

Closest report is Ely Municipal Airport, 57.5 nm (106.5 km) S. Retrieved 2020/07/05 13:16 UTC (11 minutes ago):

KELO 051316Z AUTO 12003KT 10SM CLR 24/16 A3000 RMK AO2 LTG DSNT N

Closest aviation forecast (TAF) to Atikokan Municipal Airport

Closest forecast is Falls International Airport, 71.1 nm (131.6 km) W. Retrieved 2020/07/05 12:42 UTC (45 minutes ago):

TAF KINL 051139Z 0512/0612 VRB04KT P6SM FEW110 BKN250 FM051700 18005KT P6SM VCTS SCT060 BKN150CB FM060400 00000KT P6SM VCTS SCT050 BKN120CB FM060600 VRB03KT P6SM OVC045 FM061000 VRB03KT P6SM BKN026